sensor_id;sensor_type;location;lat;lon;timestamp;pressure;altitude;pressure_sealevel;temperature;humidity
40918;BME280;26644;50.248;19.032;2023-04-03T00:01:22;98473.91;;;2.08;76.44
40918;BME280;26644;50.248;19.032;2023-04-03T00:04:28;98509.53;;;2.31;76.07
40918;BME280;26644;50.248;19.032;2023-04-03T00:07:34;98497.34;;;2.21;75.64
40918;BME280;26644;50.248;19.032;2023-04-03T00:10:39;98513.28;;;2.30;75.59
40918;BME280;26644;50.248;19.032;2023-04-03T00:13:45;98511.38;;;2.37;75.85
40918;BME280;26644;50.248;19.032;2023-04-03T00:16:53;98511.53;;;2.42;75.77
40918;BME280;26644;50.248;19.032;2023-04-03T00:19:57;98497.81;;;2.37;75.26
40918;BME280;26644;50.248;19.032;2023-04-03T00:23:03;98511.94;;;2.39;74.82
40918;BME280;26644;50.248;19.032;2023-04-03T00:26:08;98493.75;;;2.27;75.17
40918;BME280;26644;50.248;19.032;2023-04-03T00:29:15;98497.09;;;2.23;74.74
40918;BME280;26644;50.248;19.032;2023-04-03T00:32:23;98498.38;;;2.20;74.82
40918;BME280;26644;50.248;19.032;2023-04-03T00:35:29;98504.78;;;2.26;75.32
40918;BME280;26644;50.248;19.032;2023-04-03T00:38:34;98510.00;;;2.27;75.71
40918;BME280;26644;50.248;19.032;2023-04-03T00:41:39;98502.03;;;2.33;75.56
40918;BME280;26644;50.248;19.032;2023-04-03T00:48:43;98507.47;;;2.26;75.34
40918;BME280;26644;50.248;19.032;2023-04-03T00:51:50;98490.31;;;2.14;75.60
40918;BME280;26644;50.248;19.032;2023-04-03T00:55:02;98505.47;;;2.21;75.81
40918;BME280;26644;50.248;19.032;2023-04-03T00:58:10;98514.28;;;2.35;75.82
40918;BME280;26644;50.248;19.032;2023-04-03T01:01:22;98502.06;;;2.26;75.82
40918;BME280;26644;50.248;19.032;2023-04-03T01:04:34;98512.41;;;2.36;76.32
40918;BME280;26644;50.248;19.032;2023-04-03T01:07:42;98516.31;;;2.40;76.15
40918;BME280;26644;50.248;19.032;2023-04-03T01:10:48;98525.06;;;2.42;76.27
40918;BME280;26644;50.248;19.032;2023-04-03T01:13:56;98520.31;;;2.37;76.15
40918;BME280;26644;50.248;19.032;2023-04-03T01:17:02;98527.81;;;2.35;75.97
40918;BME280;26644;50.248;19.032;2023-04-03T01:24:22;98532.03;;;2.31;75.66
40918;BME280;26644;50.248;19.032;2023-04-03T01:27:35;98532.03;;;2.31;75.89
40918;BME280;26644;50.248;19.032;2023-04-03T01:30:46;98525.78;;;2.31;75.54
40918;BME280;26644;50.248;19.032;2023-04-03T01:33:59;98509.44;;;2.19;75.49
40918;BME280;26644;50.248;19.032;2023-04-03T01:37:06;98528.78;;;2.22;75.06
40918;BME280;26644;50.248;19.032;2023-04-03T01:40:11;98502.72;;;2.03;75.28
40918;BME280;26644;50.248;19.032;2023-04-03T01:43:16;98530.72;;;2.15;75.10
40918;BME280;26644;50.248;19.032;2023-04-03T01:46:22;98538.03;;;2.15;75.33
40918;BME280;26644;50.248;19.032;2023-04-03T01:49:29;98539.31;;;2.12;75.35
40918;BME280;26644;50.248;19.032;2023-04-03T01:52:35;98530.41;;;2.05;75.54
40918;BME280;26644;50.248;19.032;2023-04-03T01:55:40;98523.41;;;1.97;75.01
40918;BME280;26644;50.248;19.032;2023-04-03T01:58:46;98520.94;;;1.89;75.21
40918;BME280;26644;50.248;19.032;2023-04-03T02:01:52;98542.78;;;1.94;74.90
40918;BME280;26644;50.248;19.032;2023-04-03T02:05:00;98538.47;;;1.86;75.08
40918;BME280;26644;50.248;19.032;2023-04-03T02:08:05;98526.63;;;1.81;74.93
40918;BME280;26644;50.248;19.032;2023-04-03T02:11:11;98542.28;;;1.79;74.80
40918;BME280;26644;50.248;19.032;2023-04-03T02:14:16;98537.97;;;1.71;75.20
40918;BME280;26644;50.248;19.032;2023-04-03T02:17:22;98544.88;;;1.67;75.07
40918;BME280;26644;50.248;19.032;2023-04-03T02:20:29;98532.25;;;1.54;74.95
40918;BME280;26644;50.248;19.032;2023-04-03T02:23:35;98555.66;;;1.73;75.17
40918;BME280;26644;50.248;19.032;2023-04-03T02:26:40;98554.66;;;1.68;74.31
40918;BME280;26644;50.248;19.032;2023-04-03T02:29:45;98553.34;;;1.70;74.07
40918;BME280;26644;50.248;19.032;2023-04-03T02:32:50;98558.81;;;1.64;74.05
40918;BME280;26644;50.248;19.032;2023-04-03T02:35:59;98561.78;;;1.55;73.83
40918;BME280;26644;50.248;19.032;2023-04-03T02:39:05;98559.47;;;1.59;74.00
40918;BME280;26644;50.248;19.032;2023-04-03T02:42:11;98544.56;;;1.50;74.34
40918;BME280;26644;50.248;19.032;2023-04-03T02:45:16;98560.06;;;1.61;74.17
40918;BME280;26644;50.248;19.032;2023-04-03T02:48:22;98560.06;;;1.61;74.47
40918;BME280;26644;50.248;19.032;2023-04-03T02:51:31;98553.81;;;1.67;74.81
40918;BME280;26644;50.248;19.032;2023-04-03T02:54:37;98565.63;;;1.73;74.69
40918;BME280;26644;50.248;19.032;2023-04-03T02:57:44;98556.06;;;1.70;74.68
40918;BME280;26644;50.248;19.032;2023-04-03T03:00:50;98526.56;;;1.62;74.79
40918;BME280;26644;50.248;19.032;2023-04-03T03:03:55;98540.00;;;1.75;74.70
40918;BME280;26644;50.248;19.032;2023-04-03T03:07:03;98562.00;;;1.86;74.29
40918;BME280;26644;50.248;19.032;2023-04-03T03:10:09;98559.91;;;1.88;74.54
40918;BME280;26644;50.248;19.032;2023-04-03T03:16:36;98563.66;;;1.87;73.83
40918;BME280;26644;50.248;19.032;2023-04-03T03:19:42;98562.91;;;1.73;73.11
40918;BME280;26644;50.248;19.032;2023-04-03T03:22:49;98572.47;;;1.75;72.74
40918;BME280;26644;50.248;19.032;2023-04-03T03:25:56;98556.72;;;1.66;72.66
40918;BME280;26644;50.248;19.032;2023-04-03T03:29:01;98574.41;;;1.68;72.50
40918;BME280;26644;50.248;19.032;2023-04-03T03:32:08;98584.84;;;1.65;72.03
40918;BME280;26644;50.248;19.032;2023-04-03T03:35:13;98585.75;;;1.52;71.47
40918;BME280;26644;50.248;19.032;2023-04-03T03:38:21;98560.91;;;1.30;71.57
40918;BME280;26644;50.248;19.032;2023-04-03T03:41:27;98570.69;;;1.31;71.67
40918;BME280;26644;50.248;19.032;2023-04-03T03:44:33;98579.63;;;1.31;71.77
40918;BME280;26644;50.248;19.032;2023-04-03T03:47:38;98597.31;;;1.27;72.15
40918;BME280;26644;50.248;19.032;2023-04-03T03:50:43;98596.72;;;1.18;71.41
40918;BME280;26644;50.248;19.032;2023-04-03T03:53:51;98596.34;;;1.15;71.82
40918;BME280;26644;50.248;19.032;2023-04-03T03:56:56;98596.56;;;1.06;71.47
40918;BME280;26644;50.248;19.032;2023-04-03T04:00:01;98561.94;;;0.83;71.75
40918;BME280;26644;50.248;19.032;2023-04-03T04:03:17;98600.50;;;1.10;71.88
40918;BME280;26644;50.248;19.032;2023-04-03T04:06:24;98602.81;;;1.07;71.72
40918;BME280;26644;50.248;19.032;2023-04-03T04:09:36;98586.81;;;0.99;71.79
40918;BME280;26644;50.248;19.032;2023-04-03T04:12:43;98602.59;;;1.08;71.73
40918;BME280;26644;50.248;19.032;2023-04-03T04:15:49;98590.97;;;0.94;71.25
40918;BME280;26644;50.248;19.032;2023-04-03T04:18:54;98595.13;;;0.97;71.52
40918;BME280;26644;50.248;19.032;2023-04-03T04:22:01;98607.41;;;1.00;71.75
40918;BME280;26644;50.248;19.032;2023-04-03T04:25:10;98596.19;;;0.89;71.64
40918;BME280;26644;50.248;19.032;2023-04-03T04:28:16;98594.13;;;0.91;71.45
40918;BME280;26644;50.248;19.032;2023-04-03T04:31:24;98601.41;;;0.91;71.38
40918;BME280;26644;50.248;19.032;2023-04-03T04:34:30;98622.19;;;0.90;71.52
40918;BME280;26644;50.248;19.032;2023-04-03T04:37:36;98624.50;;;0.87;71.35
40918;BME280;26644;50.248;19.032;2023-04-03T04:40:44;98610.63;;;0.70;71.62
40918;BME280;26644;50.248;19.032;2023-04-03T04:43:51;98621.44;;;0.63;71.57
40918;BME280;26644;50.248;19.032;2023-04-03T04:46:58;98635.97;;;0.69;72.09
40918;BME280;26644;50.248;19.032;2023-04-03T04:50:03;98634.94;;;0.70;72.04
40918;BME280;26644;50.248;19.032;2023-04-03T04:53:10;98622.03;;;0.65;71.83
40918;BME280;26644;50.248;19.032;2023-04-03T04:56:17;98644.50;;;0.72;71.59
40918;BME280;26644;50.248;19.032;2023-04-03T04:59:23;98643.88;;;0.64;71.30
40918;BME280;26644;50.248;19.032;2023-04-03T05:02:31;98655.72;;;0.63;71.64
40918;BME280;26644;50.248;19.032;2023-04-03T05:05:37;98653.88;;;0.56;71.12
40918;BME280;26644;50.248;19.032;2023-04-03T05:08:42;98644.31;;;0.47;71.66
40918;BME280;26644;50.248;19.032;2023-04-03T05:11:50;98664.03;;;0.48;71.50
40918;BME280;26644;50.248;19.032;2023-04-03T05:14:59;98645.56;;;0.38;71.46
40918;BME280;26644;50.248;19.032;2023-04-03T05:18:06;98668.00;;;0.52;71.48
40918;BME280;26644;50.248;19.032;2023-04-03T05:21:11;98675.06;;;0.59;71.26
40918;BME280;26644;50.248;19.032;2023-04-03T05:24:17;98669.44;;;0.54;70.91
40918;BME280;26644;50.248;19.032;2023-04-03T05:27:25;98662.78;;;0.57;71.07
40918;BME280;26644;50.248;19.032;2023-04-03T05:30:33;98676.53;;;0.55;70.40
40918;BME280;26644;50.248;19.032;2023-04-03T05:33:39;98687.72;;;0.52;70.07
40918;BME280;26644;50.248;19.032;2023-04-03T05:36:50;98664.25;;;0.33;70.02
40918;BME280;26644;50.248;19.032;2023-04-03T05:39:55;98685.44;;;0.42;70.30
40918;BME280;26644;50.248;19.032;2023-04-03T05:43:03;98680.03;;;0.42;70.22
40918;BME280;26644;50.248;19.032;2023-04-03T05:46:12;98666.75;;;0.27;70.45
40918;BME280;26644;50.248;19.032;2023-04-03T05:49:23;98684.00;;;0.40;70.13
40918;BME280;26644;50.248;19.032;2023-04-03T05:52:30;98690.84;;;0.42;69.81
40918;BME280;26644;50.248;19.032;2023-04-03T05:55:40;98696.47;;;0.41;69.70
40918;BME280;26644;50.248;19.032;2023-04-03T05:58:48;98682.53;;;0.31;69.75
40918;BME280;26644;50.248;19.032;2023-04-03T06:01:54;98679.41;;;0.27;69.76
40918;BME280;26644;50.248;19.032;2023-04-03T06:04:59;98689.59;;;0.38;69.29
40918;BME280;26644;50.248;19.032;2023-04-03T06:08:08;98694.19;;;0.31;69.15
40918;BME280;26644;50.248;19.032;2023-04-03T06:11:13;98711.81;;;0.34;69.30
40918;BME280;26644;50.248;19.032;2023-04-03T06:14:21;98706.63;;;0.32;68.96
40918;BME280;26644;50.248;19.032;2023-04-03T06:17:26;98706.84;;;0.31;69.16
40918;BME280;26644;50.248;19.032;2023-04-03T06:20:32;98697.91;;;0.23;69.03
40918;BME280;26644;50.248;19.032;2023-04-03T06:23:37;98720.34;;;0.44;68.78
40918;BME280;26644;50.248;19.032;2023-04-03T06:26:42;98717.25;;;0.54;68.61
40918;BME280;26644;50.248;19.032;2023-04-03T06:29:50;98716.19;;;0.62;68.45
40918;BME280;26644;50.248;19.032;2023-04-03T06:32:55;98693.34;;;0.51;68.06
40918;BME280;26644;50.248;19.032;2023-04-03T06:36:04;98715.59;;;0.66;67.54
40918;BME280;26644;50.248;19.032;2023-04-03T06:39:14;98728.69;;;0.63;67.41
40918;BME280;26644;50.248;19.032;2023-04-03T06:42:21;98724.31;;;0.62;67.20
40918;BME280;26644;50.248;19.032;2023-04-03T06:45:38;98730.78;;;0.60;66.90
40918;BME280;26644;50.248;19.032;2023-04-03T06:48:44;98729.09;;;0.73;67.40
40918;BME280;26644;50.248;19.032;2023-04-03T06:51:50;98732.84;;;0.72;66.54
40918;BME280;26644;50.248;19.032;2023-04-03T06:54:55;98733.25;;;0.69;66.49
40918;BME280;26644;50.248;19.032;2023-04-03T06:58:03;98758.00;;;0.79;66.53
40918;BME280;26644;50.248;19.032;2023-04-03T07:01:12;98755.31;;;0.86;66.48
40918;BME280;26644;50.248;19.032;2023-04-03T07:04:21;98756.56;;;0.97;66.41
40918;BME280;26644;50.248;19.032;2023-04-03T07:07:25;98738.63;;;1.09;65.44
40918;BME280;26644;50.248;19.032;2023-04-03T07:10:31;98735.31;;;1.20;64.54
40918;BME280;26644;50.248;19.032;2023-04-03T07:13:36;98764.75;;;1.55;64.15
40918;BME280;26644;50.248;19.032;2023-04-03T07:16:45;98775.34;;;1.77;63.46
40918;BME280;26644;50.248;19.032;2023-04-03T07:19:49;98767.97;;;1.91;62.78
40918;BME280;26644;50.248;19.032;2023-04-03T07:22:55;98768.38;;;1.94;61.97
40918;BME280;26644;50.248;19.032;2023-04-03T07:25:59;98782.78;;;1.82;60.94
40918;BME280;26644;50.248;19.032;2023-04-03T07:29:05;98788.69;;;1.65;60.75
40918;BME280;26644;50.248;19.032;2023-04-03T07:32:12;98789.56;;;1.46;60.54
40918;BME280;26644;50.248;19.032;2023-04-03T07:35:18;98787.28;;;1.29;61.92
40918;BME280;26644;50.248;19.032;2023-04-03T07:38:23;98771.72;;;1.11;61.56
40918;BME280;26644;50.248;19.032;2023-04-03T07:41:29;98788.16;;;1.09;61.32
40918;BME280;26644;50.248;19.032;2023-04-03T07:44:34;98791.69;;;1.10;61.15
40918;BME280;26644;50.248;19.032;2023-04-03T07:47:42;98791.91;;;1.15;60.53
40918;BME280;26644;50.248;19.032;2023-04-03T07:50:47;98784.81;;;1.14;60.36
40918;BME280;26644;50.248;19.032;2023-04-03T07:53:53;98771.09;;;1.02;60.05
40918;BME280;26644;50.248;19.032;2023-04-03T07:56:58;98795.03;;;1.19;59.44
40918;BME280;26644;50.248;19.032;2023-04-03T08:00:05;98793.78;;;1.15;59.28
40918;BME280;26644;50.248;19.032;2023-04-03T08:03:16;98780.44;;;1.13;59.15
40918;BME280;26644;50.248;19.032;2023-04-03T08:06:22;98785.66;;;1.15;58.56
40918;BME280;26644;50.248;19.032;2023-04-03T08:09:27;98784.59;;;1.29;58.14
40918;BME280;26644;50.248;19.032;2023-04-03T08:12:33;98748.22;;;1.05;57.50
40918;BME280;26644;50.248;19.032;2023-04-03T08:15:38;98794.16;;;1.25;56.47
40918;BME280;26644;50.248;19.032;2023-04-03T08:18:46;98800.00;;;1.22;56.64
40918;BME280;26644;50.248;19.032;2023-04-03T08:21:51;98794.38;;;1.30;56.47
40918;BME280;26644;50.248;19.032;2023-04-03T08:24:57;98797.06;;;1.37;56.45
40918;BME280;26644;50.248;19.032;2023-04-03T08:28:02;98803.53;;;1.22;54.51
40918;BME280;26644;50.248;19.032;2023-04-03T08:31:11;98793.97;;;1.40;55.77
40918;BME280;26644;50.248;19.032;2023-04-03T08:34:20;98802.44;;;1.50;54.12
40918;BME280;26644;50.248;19.032;2023-04-03T08:37:26;98784.97;;;1.53;53.30
40918;BME280;26644;50.248;19.032;2023-04-03T08:40:31;98816.53;;;1.79;52.15
40918;BME280;26644;50.248;19.032;2023-04-03T08:43:56;98813.56;;;1.94;51.69
40918;BME280;26644;50.248;19.032;2023-04-03T08:47:19;98817.13;;;1.94;50.84
40918;BME280;26644;50.248;19.032;2023-04-03T08:50:38;98813.53;;;2.01;50.74
40918;BME280;26644;50.248;19.032;2023-04-03T08:53:54;98820.09;;;1.86;49.21
40918;BME280;26644;50.248;19.032;2023-04-03T08:57:05;98820.50;;;1.76;49.78
40918;BME280;26644;50.248;19.032;2023-04-03T09:00:19;98811.53;;;1.83;49.63
40918;BME280;26644;50.248;19.032;2023-04-03T09:03:30;98794.84;;;1.86;49.08
40918;BME280;26644;50.248;19.032;2023-04-03T09:06:40;98816.22;;;2.07;48.95
40918;BME280;26644;50.248;19.032;2023-04-03T09:09:51;98820.91;;;2.32;47.60
40918;BME280;26644;50.248;19.032;2023-04-03T09:13:03;98821.94;;;2.70;48.02
40918;BME280;26644;50.248;19.032;2023-04-03T09:16:21;98818.44;;;2.94;44.41
40918;BME280;26644;50.248;19.032;2023-04-03T09:19:45;98818.63;;;3.25;44.13
40918;BME280;26644;50.248;19.032;2023-04-03T09:23:13;98808.59;;;3.25;43.44
40918;BME280;26644;50.248;19.032;2023-04-03T09:26:28;98820.69;;;3.30;44.54
40918;BME280;26644;50.248;19.032;2023-04-03T09:29:40;98810.94;;;3.22;41.99
40918;BME280;26644;50.248;19.032;2023-04-03T09:32:50;98816.84;;;3.12;40.56
40918;BME280;26644;50.248;19.032;2023-04-03T09:35:56;98833.97;;;3.13;41.67
40918;BME280;26644;50.248;19.032;2023-04-03T09:39:11;98832.88;;;2.88;41.43
40918;BME280;26644;50.248;19.032;2023-04-03T09:42:20;98838.56;;;2.80;42.02
40918;BME280;26644;50.248;19.032;2023-04-03T09:45:30;98830.94;;;2.70;41.96
40918;BME280;26644;50.248;19.032;2023-04-03T09:48:37;98842.72;;;2.83;43.15
40918;BME280;26644;50.248;19.032;2023-04-03T09:51:41;98838.34;;;3.39;42.92
40918;BME280;26644;50.248;19.032;2023-04-03T09:54:50;98848.50;;;4.06;41.97
40918;BME280;26644;50.248;19.032;2023-04-03T09:57:58;98832.31;;;4.48;41.88
40918;BME280;26644;50.248;19.032;2023-04-03T10:01:05;98845.38;;;4.58;41.32
40918;BME280;26644;50.248;19.032;2023-04-03T10:04:15;98856.25;;;4.58;42.10
40918;BME280;26644;50.248;19.032;2023-04-03T10:07:30;98849.28;;;4.62;42.77
40918;BME280;26644;50.248;19.032;2023-04-03T10:10:43;98862.06;;;4.61;43.17
40918;BME280;26644;50.248;19.032;2023-04-03T10:13:53;98856.75;;;4.18;38.24
40918;BME280;26644;50.248;19.032;2023-04-03T10:17:16;98856.28;;;3.84;38.19
40918;BME280;26644;50.248;19.032;2023-04-03T10:20:35;98870.69;;;3.66;38.04
40918;BME280;26644;50.248;19.032;2023-04-03T10:23:48;98850.72;;;3.53;39.10
40918;BME280;26644;50.248;19.032;2023-04-03T10:27:09;98853.31;;;3.48;39.61
40918;BME280;26644;50.248;19.032;2023-04-03T10:30:33;98849.00;;;3.59;40.49
40918;BME280;26644;50.248;19.032;2023-04-03T10:33:56;98833.00;;;3.94;40.84
40918;BME280;26644;50.248;19.032;2023-04-03T10:37:18;98852.19;;;4.30;40.29
40918;BME280;26644;50.248;19.032;2023-04-03T10:40:39;98848.56;;;4.36;39.84
40918;BME280;26644;50.248;19.032;2023-04-03T10:44:03;98841.69;;;4.34;39.51
40918;BME280;26644;50.248;19.032;2023-04-03T10:47:21;98819.94;;;4.34;38.89
40918;BME280;26644;50.248;19.032;2023-04-03T10:50:42;98824.81;;;4.13;39.88
40918;BME280;26644;50.248;19.032;2023-04-03T10:54:07;98831.53;;;4.10;39.63
40918;BME280;26644;50.248;19.032;2023-04-03T10:57:16;98824.13;;;4.18;40.58
40918;BME280;26644;50.248;19.032;2023-04-03T11:00:34;98835.69;;;4.13;36.73
40918;BME280;26644;50.248;19.032;2023-04-03T11:03:47;98839.09;;;3.90;36.82
40918;BME280;26644;50.248;19.032;2023-04-03T11:07:02;98820.84;;;3.78;36.68
40918;BME280;26644;50.248;19.032;2023-04-03T11:10:21;98825.81;;;3.82;36.61
40918;BME280;26644;50.248;19.032;2023-04-03T11:13:45;98821.03;;;3.95;36.66
40918;BME280;26644;50.248;19.032;2023-04-03T11:17:11;98810.94;;;4.03;36.58
40918;BME280;26644;50.248;19.032;2023-04-03T11:20:30;98820.59;;;4.17;36.64
40918;BME280;26644;50.248;19.032;2023-04-03T11:23:40;98818.81;;;4.41;37.91
40918;BME280;26644;50.248;19.032;2023-04-03T11:26:49;98819.44;;;4.55;37.82
40918;BME280;26644;50.248;19.032;2023-04-03T11:29:59;98805.56;;;4.64;38.01
40918;BME280;26644;50.248;19.032;2023-04-03T11:33:34;98815.06;;;4.73;37.98
40918;BME280;26644;50.248;19.032;2023-04-03T11:36:52;98813.06;;;4.80;38.31
40918;BME280;26644;50.248;19.032;2023-04-03T11:40:05;98809.66;;;4.85;38.09
40918;BME280;26644;50.248;19.032;2023-04-03T11:43:22;98812.63;;;4.95;38.07
40918;BME280;26644;50.248;19.032;2023-04-03T11:46:52;98814.28;;;4.96;38.12
40918;BME280;26644;50.248;19.032;2023-04-03T11:50:03;98813.91;;;4.92;38.04
40918;BME280;26644;50.248;19.032;2023-04-03T11:53:26;98808.16;;;5.01;37.96
40918;BME280;26644;50.248;19.032;2023-04-03T11:56:33;98808.81;;;4.84;36.59
40918;BME280;26644;50.248;19.032;2023-04-03T11:59:39;98798.31;;;4.88;37.40
40918;BME280;26644;50.248;19.032;2023-04-03T12:02:43;98754.41;;;4.84;38.06
40918;BME280;26644;50.248;19.032;2023-04-03T12:05:55;98789.94;;;5.25;37.63
40918;BME280;26644;50.248;19.032;2023-04-03T12:09:01;98798.56;;;5.34;37.21
40918;BME280;26644;50.248;19.032;2023-04-03T12:12:33;98820.50;;;5.15;36.59
40918;BME280;26644;50.248;19.032;2023-04-03T12:15:50;98794.66;;;4.94;37.12
40918;BME280;26644;50.248;19.032;2023-04-03T12:19:03;98804.84;;;5.10;37.29
40918;BME280;26644;50.248;19.032;2023-04-03T12:22:14;98800.59;;;5.26;36.38
40918;BME280;26644;50.248;19.032;2023-04-03T12:25:47;98793.84;;;5.17;36.52
40918;BME280;26644;50.248;19.032;2023-04-03T12:28:55;98799.41;;;5.10;37.29
40918;BME280;26644;50.248;19.032;2023-04-03T12:32:14;98781.28;;;5.16;37.59
40918;BME280;26644;50.248;19.032;2023-04-03T12:35:36;98800.94;;;5.06;38.12
40918;BME280;26644;50.248;19.032;2023-04-03T12:39:02;98797.97;;;4.96;39.21
40918;BME280;26644;50.248;19.032;2023-04-03T12:42:34;98802.72;;;5.01;38.58
40918;BME280;26644;50.248;19.032;2023-04-03T12:46:02;98791.47;;;4.97;38.21
40918;BME280;26644;50.248;19.032;2023-04-03T12:49:35;98799.00;;;4.95;38.56
40918;BME280;26644;50.248;19.032;2023-04-03T12:52:50;98805.00;;;4.73;38.90
40918;BME280;26644;50.248;19.032;2023-04-03T12:56:21;98803.06;;;4.62;38.15
40918;BME280;26644;50.248;19.032;2023-04-03T12:59:28;98797.03;;;4.60;37.38
40918;BME280;26644;50.248;19.032;2023-04-03T13:02:34;98804.59;;;4.58;37.45
40918;BME280;26644;50.248;19.032;2023-04-03T13:05:44;98783.03;;;4.56;37.90
40918;BME280;26644;50.248;19.032;2023-04-03T13:08:51;98781.53;;;4.60;38.39
40918;BME280;26644;50.248;19.032;2023-04-03T13:12:10;98782.38;;;4.61;36.91
40918;BME280;26644;50.248;19.032;2023-04-03T13:15:20;98784.78;;;4.69;37.45
40918;BME280;26644;50.248;19.032;2023-04-03T13:18:30;98776.00;;;4.67;37.50
40918;BME280;26644;50.248;19.032;2023-04-03T13:21:36;98777.66;;;4.68;38.16
40918;BME280;26644;50.248;19.032;2023-04-03T13:24:45;98773.44;;;4.54;37.62
40918;BME280;26644;50.248;19.032;2023-04-03T13:27:56;98774.41;;;4.48;37.38
40918;BME280;26644;50.248;19.032;2023-04-03T13:31:08;98785.63;;;4.51;36.58
40918;BME280;26644;50.248;19.032;2023-04-03T13:34:23;98785.09;;;4.61;36.13
40918;BME280;26644;50.248;19.032;2023-04-03T13:37:33;98783.84;;;4.75;37.43
40918;BME280;26644;50.248;19.032;2023-04-03T13:40:48;98781.72;;;4.77;37.68
40918;BME280;26644;50.248;19.032;2023-04-03T13:43:57;98797.41;;;4.64;37.58
40918;BME280;26644;50.248;19.032;2023-04-03T13:47:22;98787.25;;;4.40;36.90
40918;BME280;26644;50.248;19.032;2023-04-03T13:50:29;98793.06;;;4.44;37.00
40918;BME280;26644;50.248;19.032;2023-04-03T13:53:42;98791.66;;;4.53;37.92
40918;BME280;26644;50.248;19.032;2023-04-03T13:56:54;98798.63;;;4.49;39.24
40918;BME280;26644;50.248;19.032;2023-04-03T14:00:25;98800.44;;;4.37;38.99
40918;BME280;26644;50.248;19.032;2023-04-03T14:03:42;98786.59;;;4.26;38.33
40918;BME280;26644;50.248;19.032;2023-04-03T14:06:49;98804.69;;;4.33;38.53
40918;BME280;26644;50.248;19.032;2023-04-03T14:09:55;98788.91;;;4.41;39.38
40918;BME280;26644;50.248;19.032;2023-04-03T14:13:00;98796.09;;;4.36;39.21
40918;BME280;26644;50.248;19.032;2023-04-03T14:16:13;98789.53;;;4.25;39.15
40918;BME280;26644;50.248;19.032;2023-04-03T14:19:22;98779.97;;;4.22;39.05
40918;BME280;26644;50.248;19.032;2023-04-03T14:22:32;98793.25;;;4.31;38.96
40918;BME280;26644;50.248;19.032;2023-04-03T14:25:37;98801.09;;;4.20;38.28
40918;BME280;26644;50.248;19.032;2023-04-03T14:28:45;98794.16;;;4.24;38.52
40918;BME280;26644;50.248;19.032;2023-04-03T14:31:54;98791.56;;;4.30;38.35
40918;BME280;26644;50.248;19.032;2023-04-03T14:35:00;98792.53;;;4.35;38.58
40918;BME280;26644;50.248;19.032;2023-04-03T14:38:21;98802.16;;;4.19;37.60
40918;BME280;26644;50.248;19.032;2023-04-03T14:41:29;98786.16;;;4.11;37.79
40918;BME280;26644;50.248;19.032;2023-04-03T14:44:34;98804.88;;;4.19;38.29
40918;BME280;26644;50.248;19.032;2023-04-03T14:47:46;98785.13;;;4.12;37.56
40918;BME280;26644;50.248;19.032;2023-04-03T14:50:53;98799.34;;;4.26;36.85
40918;BME280;26644;50.248;19.032;2023-04-03T14:53:58;98794.91;;;4.32;36.36
40918;BME280;26644;50.248;19.032;2023-04-03T14:57:09;98795.78;;;4.44;36.64
40918;BME280;26644;50.248;19.032;2023-04-03T15:00:21;98799.16;;;4.39;36.56
40918;BME280;26644;50.248;19.032;2023-04-03T15:03:29;98803.50;;;4.28;37.77
40918;BME280;26644;50.248;19.032;2023-04-03T15:06:35;98798.78;;;4.05;38.01
40918;BME280;26644;50.248;19.032;2023-04-03T15:09:39;98793.63;;;3.97;37.12
40918;BME280;26644;50.248;19.032;2023-04-03T15:12:45;98801.19;;;3.95;37.34
40918;BME280;26644;50.248;19.032;2023-04-03T15:15:52;98808.53;;;3.94;37.20
40918;BME280;26644;50.248;19.032;2023-04-03T15:19:00;98800.47;;;3.88;37.46
40918;BME280;26644;50.248;19.032;2023-04-03T15:22:05;98821.19;;;3.82;37.55
40918;BME280;26644;50.248;19.032;2023-04-03T15:25:11;98804.47;;;3.85;38.11
40918;BME280;26644;50.248;19.032;2023-04-03T15:28:22;98800.97;;;3.78;38.24
40918;BME280;26644;50.248;19.032;2023-04-03T15:31:32;98749.91;;;3.50;38.81
40918;BME280;26644;50.248;19.032;2023-04-03T15:34:40;98803.22;;;3.81;38.64
40918;BME280;26644;50.248;19.032;2023-04-03T15:37:46;98806.63;;;3.76;38.04
40918;BME280;26644;50.248;19.032;2023-04-03T15:40:53;98804.72;;;3.58;37.20
40918;BME280;26644;50.248;19.032;2023-04-03T15:43:59;98813.88;;;3.64;38.19
40918;BME280;26644;50.248;19.032;2023-04-03T15:47:04;98811.31;;;3.69;37.97
40918;BME280;26644;50.248;19.032;2023-04-03T15:50:12;98810.69;;;3.67;38.14
40918;BME280;26644;50.248;19.032;2023-04-03T15:53:17;98811.53;;;3.68;38.71
40918;BME280;26644;50.248;19.032;2023-04-03T15:56:23;98816.22;;;3.79;38.70
40918;BME280;26644;50.248;19.032;2023-04-03T15:59:28;98811.44;;;3.74;38.48
40918;BME280;26644;50.248;19.032;2023-04-03T16:02:34;98813.56;;;3.72;38.60
40918;BME280;26644;50.248;19.032;2023-04-03T16:05:41;98794.41;;;3.49;38.22
40918;BME280;26644;50.248;19.032;2023-04-03T16:08:49;98789.25;;;3.40;38.66
40918;BME280;26644;50.248;19.032;2023-04-03T16:11:58;98808.63;;;3.44;39.16
40918;BME280;26644;50.248;19.032;2023-04-03T16:15:05;98814.91;;;3.44;39.40
40918;BME280;26644;50.248;19.032;2023-04-03T16:18:11;98803.66;;;3.41;39.36
40918;BME280;26644;50.248;19.032;2023-04-03T16:21:20;98815.34;;;3.41;39.24
40918;BME280;26644;50.248;19.032;2023-04-03T16:24:25;98814.28;;;3.42;39.05
40918;BME280;26644;50.248;19.032;2023-04-03T16:27:31;98821.03;;;3.33;38.48
40918;BME280;26644;50.248;19.032;2023-04-03T16:30:35;98815.19;;;3.36;38.76
40918;BME280;26644;50.248;19.032;2023-04-03T16:33:41;98827.91;;;3.36;38.77
40918;BME280;26644;50.248;19.032;2023-04-03T16:36:49;98827.16;;;3.28;38.86
40918;BME280;26644;50.248;19.032;2023-04-03T16:39:54;98830.56;;;3.17;38.92
40918;BME280;26644;50.248;19.032;2023-04-03T16:42:59;98816.31;;;3.03;39.50
40918;BME280;26644;50.248;19.032;2023-04-03T16:46:05;98826.47;;;3.08;39.75
40918;BME280;26644;50.248;19.032;2023-04-03T16:49:10;98825.88;;;3.06;40.24
40918;BME280;26644;50.248;19.032;2023-04-03T16:52:18;98821.50;;;3.05;40.75
40918;BME280;26644;50.248;19.032;2023-04-03T16:55:23;98792.47;;;2.80;41.03